MSC Florentina — HPFH — position and weather

sailwx.info

Track history (hours):
 
Tides and Currents Weather Stations Pressure Air Temp Water Temp Dewpoint Dewpoint Depression Visibility Wind Speed Wind Dir Waves Ship Positions

MSC Florentina

Last reported at 2015-Mar-01 01:21 UTC. Time now 2015-Mar-02 15:07 UTC.
Position N 29°21' W 094°42'.

Length 300 m; draft 11.2 m.

Type: Ship. MMSI: 352870000.

Date/timePositionNaut miles runAvg speedWind from/ knotsBaromVisibWave heightAir tempDewpointWater temp
2015-Mar-01 01:21N 29°21' W 094°42'1011.4
2015-Mar-01 00:29N 29°27' W 094°51'1111.7
2015-Feb-28 23:33N 29°36' W 094°57'3 2.6
2015-Feb-28 22:33N 29°37' W 095°00'0 0.0
2015-Feb-28 21:31N 29°37' W 095°00'0 0.0
2015-Feb-28 20:31N 29°37' W 095°00'0 0.0
2015-Feb-28 19:31N 29°37' W 095°00'0 0.0
2015-Feb-28 18:31N 29°37' W 095°00'0 0.0
2015-Feb-28 17:28N 29°37' W 095°00'0 0.0
2015-Feb-28 16:31N 29°37' W 095°00'0 0.0
2015-Feb-28 15:31N 29°37' W 095°00'0 0.0
2015-Feb-28 14:31N 29°37' W 095°00'0 0.0
2015-Feb-28 13:31N 29°37' W 095°00'0 0.0
2015-Feb-28 12:31N 29°37' W 095°00'0 0.0
2015-Feb-28 11:31N 29°37' W 095°00'0 0.0
2015-Feb-28 10:28N 29°37' W 095°00'0 0.0
2015-Feb-28 09:31N 29°37' W 095°00'0 0.0
2015-Feb-28 08:31N 29°37' W 095°00'0 0.0
2015-Feb-28 07:31N 29°37' W 095°00'0 0.0
2015-Feb-28 06:28N 29°37' W 095°00'0 0.0
2015-Feb-28 05:31N 29°37' W 095°00'0 0.0
2015-Feb-28 04:31N 29°37' W 095°00'0 0.0
2015-Feb-28 03:28N 29°37' W 095°00'0 0.0
2015-Feb-28 02:28N 29°37' W 095°00'0 0.0
2015-Feb-28 01:31N 29°37' W 095°00'0 0.0
2015-Feb-28 00:31N 29°37' W 095°00'0 0.0
2015-Feb-27 23:31N 29°37' W 095°00'0 0.0
2015-Feb-27 22:31N 29°37' W 095°00'0 0.0
2015-Feb-27 21:31N 29°37' W 095°00'0 0.0
2015-Feb-27 20:31N 29°37' W 095°00'0 0.0
2015-Feb-27 19:31N 29°37' W 095°00'0 0.0
2015-Feb-27 18:31N 29°37' W 095°00'0 0.0
2015-Feb-27 17:31N 29°37' W 095°00'0 0.0
2015-Feb-27 16:31N 29°37' W 095°00'0 0.0
2015-Feb-27 15:31N 29°37' W 095°00'0 0.0
2015-Feb-27 14:31N 29°37' W 095°00'0 0.0
2015-Feb-27 13:28N 29°37' W 095°00'0 0.0
2015-Feb-27 12:31N 29°37' W 095°00'0 0.0
2015-Feb-27 11:31N 29°37' W 095°00'0 0.0
2015-Feb-27 10:31N 29°37' W 095°00'0 0.0
2015-Feb-27 09:31N 29°37' W 095°00'0 0.0
2015-Feb-27 08:31N 29°37' W 095°00'0 0.0
2015-Feb-27 07:31N 29°37' W 095°00'0 0.0
2015-Feb-27 06:31N 29°37' W 095°00'0 0.0
2015-Feb-27 05:31N 29°37' W 095°00'0 0.0
2015-Feb-27 04:31N 29°37' W 095°00'0 0.0
2015-Feb-27 03:31N 29°37' W 095°00'0 0.0
2015-Feb-27 02:31N 29°37' W 095°00'0 0.0
2015-Feb-27 01:31N 29°37' W 095°00'0 0.0
2015-Feb-27 00:31N 29°37' W 095°00'0 0.0
2015-Feb-26 23:31N 29°37' W 095°00'0 0.0
2015-Feb-26 22:31N 29°37' W 095°00'1 0.9
2015-Feb-26 21:34N 29°37' W 095°01'4 3.6
2015-Feb-26 20:33N 29°36' W 094°57'1010.5
2015-Feb-26 19:33N 29°27' W 094°51'  
2015-Feb-24 00:04N 20°16' W 096°25'2514.4
2015-Feb-23 22:20N 19°53' W 096°14'1114.4
2015-Feb-23 21:33N 19°43' W 096°09'1414.1
2015-Feb-23 20:33N 19°30' W 096°03'1414.3
2015-Feb-23 19:33N 19°17' W 095°57'1010.2
2015-Feb-23 18:33N 19°12' W 096°07'1 1.0
2015-Feb-23 17:33N 19°13' W 096°08'0 0.0
2015-Feb-23 16:33N 19°13' W 096°08'0 0.0
2015-Feb-23 15:33N 19°13' W 096°08'0 0.0
2015-Feb-23 14:33N 19°13' W 096°08'0 0.0
2015-Feb-23 13:33N 19°13' W 096°08'0 0.0
2015-Feb-23 12:33N 19°13' W 096°08'0 0.0
2015-Feb-23 11:33N 19°13' W 096°08'0 0.0
2015-Feb-23 10:33N 19°13' W 096°08'0 0.0
2015-Feb-23 09:33N 19°13' W 096°08'0 0.0
2015-Feb-23 08:33N 19°13' W 096°08'0 0.0
2015-Feb-23 07:33N 19°13' W 096°08'0 0.0
2015-Feb-23 06:33N 19°13' W 096°08'0 0.0
2015-Feb-23 05:33N 19°13' W 096°08'0 0.0
2015-Feb-23 04:33N 19°13' W 096°08'0 0.0
2015-Feb-23 03:33N 19°13' W 096°08'1 0.9
2015-Feb-23 02:33N 19°12' W 096°07'7 7.0
2015-Feb-23 01:33N 19°13' W 095°60'3 3.5
2015-Feb-23 00:34N 19°14' W 095°56'6 6.3
2015-Feb-22 23:34N 19°15' W 095°50'7 6.1
2015-Feb-22 22:29N 19°16' W 095°43'6 6.5
2015-Feb-22 21:33N 19°19' W 095°38'8 6.3
2015-Feb-22 20:14N 19°24' W 095°30'5612.0
2015-Feb-22 15:33N 19°56' W 094°41'  
Track history (hours):
 
Tides and Currents Weather Stations Pressure Air Temp Water Temp Dewpoint Dewpoint Depression Visibility Wind Speed Wind Dir Waves Ship Positions

MSC Florentina

Last reported at 2015-Mar-01 01:21 UTC. Time now 2015-Mar-02 15:07 UTC.
Position N 29°21' W 094°42'.

Length 300 m; draft 11.2 m.

Type: Ship. MMSI: 352870000.

Date/timePositionNaut miles runAvg speedWind from/ knotsBaromVisibWave heightAir tempDewpointWater temp
2015-Mar-01 01:21N 29°21' W 094°42'1011.4
2015-Mar-01 00:29N 29°27' W 094°51'1111.7
2015-Feb-28 23:33N 29°36' W 094°57'3 2.6
2015-Feb-28 22:33N 29°37' W 095°00'0 0.0
2015-Feb-28 21:31N 29°37' W 095°00'0 0.0
2015-Feb-28 20:31N 29°37' W 095°00'0 0.0
2015-Feb-28 19:31N 29°37' W 095°00'0 0.0
2015-Feb-28 18:31N 29°37' W 095°00'0 0.0
2015-Feb-28 17:28N 29°37' W 095°00'0 0.0
2015-Feb-28 16:31N 29°37' W 095°00'0 0.0
2015-Feb-28 15:31N 29°37' W 095°00'0 0.0
2015-Feb-28 14:31N 29°37' W 095°00'0 0.0
2015-Feb-28 13:31N 29°37' W 095°00'0 0.0
2015-Feb-28 12:31N 29°37' W 095°00'0 0.0
2015-Feb-28 11:31N 29°37' W 095°00'0 0.0
2015-Feb-28 10:28N 29°37' W 095°00'0 0.0
2015-Feb-28 09:31N 29°37' W 095°00'0 0.0
2015-Feb-28 08:31N 29°37' W 095°00'0 0.0
2015-Feb-28 07:31N 29°37' W 095°00'0 0.0
2015-Feb-28 06:28N 29°37' W 095°00'0 0.0
2015-Feb-28 05:31N 29°37' W 095°00'0 0.0
2015-Feb-28 04:31N 29°37' W 095°00'0 0.0
2015-Feb-28 03:28N 29°37' W 095°00'0 0.0
2015-Feb-28 02:28N 29°37' W 095°00'0 0.0
2015-Feb-28 01:31N 29°37' W 095°00'0 0.0
2015-Feb-28 00:31N 29°37' W 095°00'0 0.0
2015-Feb-27 23:31N 29°37' W 095°00'0 0.0
2015-Feb-27 22:31N 29°37' W 095°00'0 0.0
2015-Feb-27 21:31N 29°37' W 095°00'0 0.0
2015-Feb-27 20:31N 29°37' W 095°00'0 0.0
2015-Feb-27 19:31N 29°37' W 095°00'0 0.0
2015-Feb-27 18:31N 29°37' W 095°00'0 0.0
2015-Feb-27 17:31N 29°37' W 095°00'0 0.0
2015-Feb-27 16:31N 29°37' W 095°00'0 0.0
2015-Feb-27 15:31N 29°37' W 095°00'0 0.0
2015-Feb-27 14:31N 29°37' W 095°00'0 0.0
2015-Feb-27 13:28N 29°37' W 095°00'0 0.0
2015-Feb-27 12:31N 29°37' W 095°00'0 0.0
2015-Feb-27 11:31N 29°37' W 095°00'0 0.0
2015-Feb-27 10:31N 29°37' W 095°00'0 0.0
2015-Feb-27 09:31N 29°37' W 095°00'0 0.0
2015-Feb-27 08:31N 29°37' W 095°00'0 0.0
2015-Feb-27 07:31N 29°37' W 095°00'0 0.0
2015-Feb-27 06:31N 29°37' W 095°00'0 0.0
2015-Feb-27 05:31N 29°37' W 095°00'0 0.0
2015-Feb-27 04:31N 29°37' W 095°00'0 0.0
2015-Feb-27 03:31N 29°37' W 095°00'0 0.0
2015-Feb-27 02:31N 29°37' W 095°00'0 0.0
2015-Feb-27 01:31N 29°37' W 095°00'0 0.0
2015-Feb-27 00:31N 29°37' W 095°00'0 0.0
2015-Feb-26 23:31N 29°37' W 095°00'0 0.0
2015-Feb-26 22:31N 29°37' W 095°00'1 0.9
2015-Feb-26 21:34N 29°37' W 095°01'4 3.6
2015-Feb-26 20:33N 29°36' W 094°57'1010.5
2015-Feb-26 19:33N 29°27' W 094°51'  
2015-Feb-24 00:04N 20°16' W 096°25'2514.4
2015-Feb-23 22:20N 19°53' W 096°14'1114.4
2015-Feb-23 21:33N 19°43' W 096°09'1414.1
2015-Feb-23 20:33N 19°30' W 096°03'1414.3
2015-Feb-23 19:33N 19°17' W 095°57'1010.2
2015-Feb-23 18:33N 19°12' W 096°07'1 1.0
2015-Feb-23 17:33N 19°13' W 096°08'0 0.0
2015-Feb-23 16:33N 19°13' W 096°08'0 0.0
2015-Feb-23 15:33N 19°13' W 096°08'0 0.0
2015-Feb-23 14:33N 19°13' W 096°08'0 0.0
2015-Feb-23 13:33N 19°13' W 096°08'0 0.0
2015-Feb-23 12:33N 19°13' W 096°08'0 0.0
2015-Feb-23 11:33N 19°13' W 096°08'0 0.0
2015-Feb-23 10:33N 19°13' W 096°08'0 0.0
2015-Feb-23 09:33N 19°13' W 096°08'0 0.0
2015-Feb-23 08:33N 19°13' W 096°08'0 0.0
2015-Feb-23 07:33N 19°13' W 096°08'0 0.0
2015-Feb-23 06:33N 19°13' W 096°08'0 0.0
2015-Feb-23 05:33N 19°13' W 096°08'0 0.0
2015-Feb-23 04:33N 19°13' W 096°08'0 0.0
2015-Feb-23 03:33N 19°13' W 096°08'1 0.9
2015-Feb-23 02:33N 19°12' W 096°07'7 7.0
2015-Feb-23 01:33N 19°13' W 095°60'3 3.5
2015-Feb-23 00:34N 19°14' W 095°56'6 6.3
2015-Feb-22 23:34N 19°15' W 095°50'7 6.1
2015-Feb-22 22:29N 19°16' W 095°43'6 6.5
2015-Feb-22 21:33N 19°19' W 095°38'8 6.3
2015-Feb-22 20:14N 19°24' W 095°30'5612.0
2015-Feb-22 15:33N 19°56' W 094°41'  

Dump ship's entire track history